This is the latest recevied weather packets stored in our database for station/object TB1YZC-13. If no packets are shown the sender has not sent any weather packets the latest 10 day(s).
| Time | Temp. | Humidity | Pressure | Rain* | Wind** | Luminosity | Snow |
|---|---|---|---|---|---|---|---|
| 1788613004 | 32.78° C | 29% | 1017.5 hPa | - | - | - | - |
| 1788612431 | 33.33° C | 29% | 1017.6 hPa | - | - | - | - |
| 1788611798 | 31.67° C | 30% | 1017.8 hPa | - | - | - | - |
| 1788611195 | 31.67° C | 30% | 1017.8 hPa | - | - | - | - |
| 1788610591 | 32.78° C | 29% | 1017.8 hPa | - | - | - | - |
| 1788609988 | 31.67° C | 30% | 1018.1 hPa | - | - | - | - |
| 1788609385 | 31.67° C | 31% | 1018.2 hPa | - | - | - | - |
| 1788608782 | 31.11° C | 31% | 1018.3 hPa | - | - | - | - |
| 1788608179 | 31.11° C | 31% | 1018.3 hPa | - | - | - | - |
| 1788607575 | 31.11° C | 31% | 1018.4 hPa | - | - | - | - |
| 1788606972 | 30.56° C | 32% | 1018.5 hPa | - | - | - | - |
| 1788606369 | 30.56° C | 32% | 1018.5 hPa | - | - | - | - |
| 1788605765 | 30° C | 33% | 1018.7 hPa | - | - | - | - |
| 1788605162 | 30° C | 33% | 1018.8 hPa | - | - | - | - |
| 1788604559 | 29.44° C | 36% | 1018.8 hPa | - | - | - | - |
| 1788603956 | 29.44° C | 37% | 1018.9 hPa | - | - | - | - |
| 1788603353 | 29.44° C | 38% | 1018.9 hPa | - | - | - | - |
| 1788602749 | 29.44° C | 38% | 1019 hPa | - | - | - | - |
| 1788602146 | 28.89° C | 38% | 1019 hPa | - | - | - | - |
| 1788601543 | 28.89° C | 39% | 1019 hPa | - | - | - | - |
| 1788600940 | 28.89° C | 41% | 1019 hPa | - | - | - | - |
| 1788600337 | 28.89° C | 41% | 1019.1 hPa | - | - | - | - |
| 1788599734 | 28.89° C | 43% | 1019.2 hPa | - | - | - | - |
| 1788599131 | 28.89° C | 42% | 1019.2 hPa | - | - | - | - |
| 1788598527 | 28.89° C | 43% | 1019.3 hPa | - | - | - | - |
* Rain since midnight (hover to see other rain measurements)
** Current wind speed in m/s (hover to see current wind gust speed)